sensor_id;sensor_type;location;lat;lon;timestamp;temperature;humidity
6270;DHT22;3168;51.684;6.954;2023-11-21T00:00:57;7.00;1.00
6270;DHT22;3168;51.684;6.954;2023-11-21T00:03:23;7.00;1.00
6270;DHT22;3168;51.684;6.954;2023-11-21T00:05:49;7.10;1.00
6270;DHT22;3168;51.684;6.954;2023-11-21T00:08:15;7.20;1.00
6270;DHT22;3168;51.684;6.954;2023-11-21T00:10:41;7.40;1.00
6270;DHT22;3168;51.684;6.954;2023-11-21T00:13:07;7.30;1.00
6270;DHT22;3168;51.684;6.954;2023-11-21T00:15:33;7.50;1.00
6270;DHT22;3168;51.684;6.954;2023-11-21T00:17:59;7.50;1.00
6270;DHT22;3168;51.684;6.954;2023-11-21T00:20:25;7.50;1.00
6270;DHT22;3168;51.684;6.954;2023-11-21T00:22:51;7.50;1.00
6270;DHT22;3168;51.684;6.954;2023-11-21T00:25:17;7.60;1.00
6270;DHT22;3168;51.684;6.954;2023-11-21T00:27:43;7.70;1.00
6270;DHT22;3168;51.684;6.954;2023-11-21T00:30:11;7.60;1.00
6270;DHT22;3168;51.684;6.954;2023-11-21T00:32:37;7.70;1.00
6270;DHT22;3168;51.684;6.954;2023-11-21T00:35:03;7.80;1.00
6270;DHT22;3168;51.684;6.954;2023-11-21T00:37:30;7.60;1.00
6270;DHT22;3168;51.684;6.954;2023-11-21T00:39:56;7.60;1.00
6270;DHT22;3168;51.684;6.954;2023-11-21T00:42:22;7.60;1.00
6270;DHT22;3168;51.684;6.954;2023-11-21T00:44:48;7.60;1.00
6270;DHT22;3168;51.684;6.954;2023-11-21T00:47:14;7.60;1.00
6270;DHT22;3168;51.684;6.954;2023-11-21T00:49:40;7.60;1.00
6270;DHT22;3168;51.684;6.954;2023-11-21T00:52:06;7.60;1.00
6270;DHT22;3168;51.684;6.954;2023-11-21T00:54:32;7.70;1.00
6270;DHT22;3168;51.684;6.954;2023-11-21T00:56:58;7.80;1.00
6270;DHT22;3168;51.684;6.954;2023-11-21T00:59:24;7.70;1.00
6270;DHT22;3168;51.684;6.954;2023-11-21T01:01:50;7.60;1.00
6270;DHT22;3168;51.684;6.954;2023-11-21T01:04:16;7.60;1.00
6270;DHT22;3168;51.684;6.954;2023-11-21T01:06:43;7.50;1.00
6270;DHT22;3168;51.684;6.954;2023-11-21T01:09:08;7.50;1.00
6270;DHT22;3168;51.684;6.954;2023-11-21T01:11:35;7.50;1.00
6270;DHT22;3168;51.684;6.954;2023-11-21T01:14:01;7.50;1.00
6270;DHT22;3168;51.684;6.954;2023-11-21T01:16:26;7.30;1.00
6270;DHT22;3168;51.684;6.954;2023-11-21T01:18:52;7.30;1.00
6270;DHT22;3168;51.684;6.954;2023-11-21T01:21:19;7.30;1.00
6270;DHT22;3168;51.684;6.954;2023-11-21T01:23:44;7.10;1.00
6270;DHT22;3168;51.684;6.954;2023-11-21T01:26:11;7.10;1.00
6270;DHT22;3168;51.684;6.954;2023-11-21T01:28:37;7.20;1.00
6270;DHT22;3168;51.684;6.954;2023-11-21T01:31:03;7.20;1.00
6270;DHT22;3168;51.684;6.954;2023-11-21T01:33:29;7.10;1.00
6270;DHT22;3168;51.684;6.954;2023-11-21T01:35:55;7.10;1.00
6270;DHT22;3168;51.684;6.954;2023-11-21T01:38:21;7.10;1.00
6270;DHT22;3168;51.684;6.954;2023-11-21T01:40:47;7.20;1.00
6270;DHT22;3168;51.684;6.954;2023-11-21T01:43:13;7.20;1.00
6270;DHT22;3168;51.684;6.954;2023-11-21T01:45:39;7.00;1.00
6270;DHT22;3168;51.684;6.954;2023-11-21T01:48:05;6.90;1.00
6270;DHT22;3168;51.684;6.954;2023-11-21T01:50:32;6.90;1.00
6270;DHT22;3168;51.684;6.954;2023-11-21T01:52:58;6.90;1.00
6270;DHT22;3168;51.684;6.954;2023-11-21T01:55:24;6.90;1.00
6270;DHT22;3168;51.684;6.954;2023-11-21T01:57:50;6.80;1.00
6270;DHT22;3168;51.684;6.954;2023-11-21T02:00:16;6.80;1.00
6270;DHT22;3168;51.684;6.954;2023-11-21T02:02:44;6.80;1.00
6270;DHT22;3168;51.684;6.954;2023-11-21T02:05:11;6.90;1.00
6270;DHT22;3168;51.684;6.954;2023-11-21T02:07:37;6.90;1.00
6270;DHT22;3168;51.684;6.954;2023-11-21T02:10:03;7.00;1.00
6270;DHT22;3168;51.684;6.954;2023-11-21T02:12:30;7.00;1.00
6270;DHT22;3168;51.684;6.954;2023-11-21T02:14:55;7.10;1.00
6270;DHT22;3168;51.684;6.954;2023-11-21T02:17:22;7.10;1.00
6270;DHT22;3168;51.684;6.954;2023-11-21T02:19:48;7.20;1.00
6270;DHT22;3168;51.684;6.954;2023-11-21T02:22:14;7.10;1.00
6270;DHT22;3168;51.684;6.954;2023-11-21T02:24:40;7.00;1.00
6270;DHT22;3168;51.684;6.954;2023-11-21T02:27:05;7.10;1.00
6270;DHT22;3168;51.684;6.954;2023-11-21T02:29:31;7.10;1.00
6270;DHT22;3168;51.684;6.954;2023-11-21T02:31:57;7.10;1.00
6270;DHT22;3168;51.684;6.954;2023-11-21T02:34:24;7.30;1.00
6270;DHT22;3168;51.684;6.954;2023-11-21T02:36:50;7.20;1.00
6270;DHT22;3168;51.684;6.954;2023-11-21T02:39:16;7.30;1.00
6270;DHT22;3168;51.684;6.954;2023-11-21T02:41:42;7.30;1.00
6270;DHT22;3168;51.684;6.954;2023-11-21T02:44:08;7.20;1.00
6270;DHT22;3168;51.684;6.954;2023-11-21T02:46:34;7.10;1.00
6270;DHT22;3168;51.684;6.954;2023-11-21T02:49:04;7.10;1.00
6270;DHT22;3168;51.684;6.954;2023-11-21T02:51:30;7.00;1.00
6270;DHT22;3168;51.684;6.954;2023-11-21T02:53:56;7.00;1.00
6270;DHT22;3168;51.684;6.954;2023-11-21T02:56:23;6.90;1.00
6270;DHT22;3168;51.684;6.954;2023-11-21T02:58:49;6.90;1.00
6270;DHT22;3168;51.684;6.954;2023-11-21T03:01:15;6.90;1.00
6270;DHT22;3168;51.684;6.954;2023-11-21T03:03:41;6.80;1.00
6270;DHT22;3168;51.684;6.954;2023-11-21T03:06:07;6.80;1.00
6270;DHT22;3168;51.684;6.954;2023-11-21T03:08:33;6.80;1.00
6270;DHT22;3168;51.684;6.954;2023-11-21T03:10:59;6.90;1.00
6270;DHT22;3168;51.684;6.954;2023-11-21T03:13:25;6.90;1.00
6270;DHT22;3168;51.684;6.954;2023-11-21T03:15:51;7.00;1.00
6270;DHT22;3168;51.684;6.954;2023-11-21T03:18:17;7.10;1.00
6270;DHT22;3168;51.684;6.954;2023-11-21T03:20:43;7.20;1.00
6270;DHT22;3168;51.684;6.954;2023-11-21T03:23:09;7.20;1.00
6270;DHT22;3168;51.684;6.954;2023-11-21T03:25:35;7.30;1.00
6270;DHT22;3168;51.684;6.954;2023-11-21T03:28:01;7.40;1.00
6270;DHT22;3168;51.684;6.954;2023-11-21T03:30:28;7.60;1.00
6270;DHT22;3168;51.684;6.954;2023-11-21T03:32:54;7.60;1.00
6270;DHT22;3168;51.684;6.954;2023-11-21T03:35:20;7.50;1.00
6270;DHT22;3168;51.684;6.954;2023-11-21T03:37:46;7.30;1.00
6270;DHT22;3168;51.684;6.954;2023-11-21T03:40:12;7.10;1.00
6270;DHT22;3168;51.684;6.954;2023-11-21T03:42:38;6.90;1.00
6270;DHT22;3168;51.684;6.954;2023-11-21T03:45:06;6.80;1.00
6270;DHT22;3168;51.684;6.954;2023-11-21T03:47:32;6.70;1.00
6270;DHT22;3168;51.684;6.954;2023-11-21T03:49:58;6.60;1.00
6270;DHT22;3168;51.684;6.954;2023-11-21T03:52:24;6.60;1.00
6270;DHT22;3168;51.684;6.954;2023-11-21T03:54:50;6.60;1.00
6270;DHT22;3168;51.684;6.954;2023-11-21T03:57:16;6.60;1.00
6270;DHT22;3168;51.684;6.954;2023-11-21T03:59:43;6.50;1.00
6270;DHT22;3168;51.684;6.954;2023-11-21T04:02:08;6.50;1.00
6270;DHT22;3168;51.684;6.954;2023-11-21T04:04:35;6.50;1.00
6270;DHT22;3168;51.684;6.954;2023-11-21T04:07:01;6.50;1.00
6270;DHT22;3168;51.684;6.954;2023-11-21T04:09:27;6.50;1.00
6270;DHT22;3168;51.684;6.954;2023-11-21T04:11:53;6.60;1.00
6270;DHT22;3168;51.684;6.954;2023-11-21T04:14:20;6.60;1.00
6270;DHT22;3168;51.684;6.954;2023-11-21T04:16:45;6.60;1.00
6270;DHT22;3168;51.684;6.954;2023-11-21T04:19:11;6.60;1.00
6270;DHT22;3168;51.684;6.954;2023-11-21T04:21:38;6.70;1.00
6270;DHT22;3168;51.684;6.954;2023-11-21T04:24:05;6.60;1.00
6270;DHT22;3168;51.684;6.954;2023-11-21T04:26:31;6.70;1.00
6270;DHT22;3168;51.684;6.954;2023-11-21T04:28:57;6.70;1.00
6270;DHT22;3168;51.684;6.954;2023-11-21T04:31:23;6.70;1.00
6270;DHT22;3168;51.684;6.954;2023-11-21T04:33:49;6.70;1.00
6270;DHT22;3168;51.684;6.954;2023-11-21T04:36:15;6.60;1.00
6270;DHT22;3168;51.684;6.954;2023-11-21T04:38:41;6.60;1.00
6270;DHT22;3168;51.684;6.954;2023-11-21T04:41:08;6.50;1.00
6270;DHT22;3168;51.684;6.954;2023-11-21T04:43:33;6.50;1.00
6270;DHT22;3168;51.684;6.954;2023-11-21T04:45:59;6.40;1.00
6270;DHT22;3168;51.684;6.954;2023-11-21T04:48:25;6.40;1.00
6270;DHT22;3168;51.684;6.954;2023-11-21T04:50:51;6.50;1.00
6270;DHT22;3168;51.684;6.954;2023-11-21T04:53:17;6.40;1.00
6270;DHT22;3168;51.684;6.954;2023-11-21T04:55:43;6.40;1.00
6270;DHT22;3168;51.684;6.954;2023-11-21T04:58:09;6.40;1.00
6270;DHT22;3168;51.684;6.954;2023-11-21T05:00:35;6.40;1.00
6270;DHT22;3168;51.684;6.954;2023-11-21T05:03:03;6.20;1.00
6270;DHT22;3168;51.684;6.954;2023-11-21T05:05:29;6.20;1.00
6270;DHT22;3168;51.684;6.954;2023-11-21T05:07:55;6.10;1.00
6270;DHT22;3168;51.684;6.954;2023-11-21T05:10:21;6.00;1.00
6270;DHT22;3168;51.684;6.954;2023-11-21T05:12:47;6.00;1.00
6270;DHT22;3168;51.684;6.954;2023-11-21T05:15:14;6.00;1.00
6270;DHT22;3168;51.684;6.954;2023-11-21T05:17:39;6.00;1.00
6270;DHT22;3168;51.684;6.954;2023-11-21T05:20:07;5.90;1.00
6270;DHT22;3168;51.684;6.954;2023-11-21T05:22:33;5.90;1.00
6270;DHT22;3168;51.684;6.954;2023-11-21T05:24:59;5.80;1.00
6270;DHT22;3168;51.684;6.954;2023-11-21T05:27:25;5.80;1.00
6270;DHT22;3168;51.684;6.954;2023-11-21T05:29:52;5.80;1.00
6270;DHT22;3168;51.684;6.954;2023-11-21T05:32:17;5.80;1.00
6270;DHT22;3168;51.684;6.954;2023-11-21T05:34:44;5.90;1.00
6270;DHT22;3168;51.684;6.954;2023-11-21T05:37:11;5.90;1.00
6270;DHT22;3168;51.684;6.954;2023-11-21T05:39:37;5.90;1.00
6270;DHT22;3168;51.684;6.954;2023-11-21T05:42:03;6.00;1.00
6270;DHT22;3168;51.684;6.954;2023-11-21T05:44:29;6.00;1.00
6270;DHT22;3168;51.684;6.954;2023-11-21T05:46:55;6.10;1.00
6270;DHT22;3168;51.684;6.954;2023-11-21T05:49:21;6.10;1.00
6270;DHT22;3168;51.684;6.954;2023-11-21T05:51:47;6.10;1.00
6270;DHT22;3168;51.684;6.954;2023-11-21T05:54:13;6.10;1.00
6270;DHT22;3168;51.684;6.954;2023-11-21T05:56:39;6.10;1.00
6270;DHT22;3168;51.684;6.954;2023-11-21T05:59:05;6.10;1.00
6270;DHT22;3168;51.684;6.954;2023-11-21T06:01:31;6.10;1.00
6270;DHT22;3168;51.684;6.954;2023-11-21T06:03:57;6.10;1.00
6270;DHT22;3168;51.684;6.954;2023-11-21T06:06:23;6.10;1.00
6270;DHT22;3168;51.684;6.954;2023-11-21T06:08:49;6.10;1.00
6270;DHT22;3168;51.684;6.954;2023-11-21T06:11:16;6.20;1.00
6270;DHT22;3168;51.684;6.954;2023-11-21T06:13:42;6.20;1.00
6270;DHT22;3168;51.684;6.954;2023-11-21T06:16:08;6.20;1.00
6270;DHT22;3168;51.684;6.954;2023-11-21T06:18:34;6.30;1.00
6270;DHT22;3168;51.684;6.954;2023-11-21T06:21:00;6.30;1.00
6270;DHT22;3168;51.684;6.954;2023-11-21T06:23:26;6.30;1.00
6270;DHT22;3168;51.684;6.954;2023-11-21T06:25:52;6.40;1.00
6270;DHT22;3168;51.684;6.954;2023-11-21T06:28:18;6.40;1.00
6270;DHT22;3168;51.684;6.954;2023-11-21T06:30:44;6.40;1.00
6270;DHT22;3168;51.684;6.954;2023-11-21T06:33:11;6.50;1.00
6270;DHT22;3168;51.684;6.954;2023-11-21T06:35:37;6.50;1.00
6270;DHT22;3168;51.684;6.954;2023-11-21T06:38:03;6.70;1.00
6270;DHT22;3168;51.684;6.954;2023-11-21T06:40:29;6.70;1.00
6270;DHT22;3168;51.684;6.954;2023-11-21T06:42:56;6.60;1.00
6270;DHT22;3168;51.684;6.954;2023-11-21T06:45:22;6.60;1.00
6270;DHT22;3168;51.684;6.954;2023-11-21T06:47:48;6.60;1.00
6270;DHT22;3168;51.684;6.954;2023-11-21T06:50:14;6.60;1.00
6270;DHT22;3168;51.684;6.954;2023-11-21T06:52:40;6.60;1.00
6270;DHT22;3168;51.684;6.954;2023-11-21T06:55:07;6.60;1.00
6270;DHT22;3168;51.684;6.954;2023-11-21T06:57:33;6.70;1.00
6270;DHT22;3168;51.684;6.954;2023-11-21T06:59:59;6.70;1.00
6270;DHT22;3168;51.684;6.954;2023-11-21T07:02:25;6.70;1.00
6270;DHT22;3168;51.684;6.954;2023-11-21T07:04:51;6.70;1.00
6270;DHT22;3168;51.684;6.954;2023-11-21T07:07:18;6.70;1.00
6270;DHT22;3168;51.684;6.954;2023-11-21T07:09:44;6.70;1.00
6270;DHT22;3168;51.684;6.954;2023-11-21T07:12:12;6.70;1.00
6270;DHT22;3168;51.684;6.954;2023-11-21T07:14:38;6.70;1.00
6270;DHT22;3168;51.684;6.954;2023-11-21T07:17:04;6.70;1.00
6270;DHT22;3168;51.684;6.954;2023-11-21T07:19:30;6.70;1.00
6270;DHT22;3168;51.684;6.954;2023-11-21T07:21:56;6.80;1.00
6270;DHT22;3168;51.684;6.954;2023-11-21T07:24:22;6.80;1.00
6270;DHT22;3168;51.684;6.954;2023-11-21T07:26:49;6.70;1.00
6270;DHT22;3168;51.684;6.954;2023-11-21T07:29:15;6.80;1.00
6270;DHT22;3168;51.684;6.954;2023-11-21T07:31:41;6.90;1.00
6270;DHT22;3168;51.684;6.954;2023-11-21T07:34:07;6.90;1.00
6270;DHT22;3168;51.684;6.954;2023-11-21T07:36:33;7.00;1.00
6270;DHT22;3168;51.684;6.954;2023-11-21T07:38:59;7.00;1.00
6270;DHT22;3168;51.684;6.954;2023-11-21T07:41:26;7.20;1.00
6270;DHT22;3168;51.684;6.954;2023-11-21T07:43:52;7.20;1.00
6270;DHT22;3168;51.684;6.954;2023-11-21T07:46:18;7.30;1.00
6270;DHT22;3168;51.684;6.954;2023-11-21T07:48:44;7.30;1.00
6270;DHT22;3168;51.684;6.954;2023-11-21T07:51:10;7.30;1.00
6270;DHT22;3168;51.684;6.954;2023-11-21T07:53:36;7.40;1.00
6270;DHT22;3168;51.684;6.954;2023-11-21T07:56:04;7.50;1.00
6270;DHT22;3168;51.684;6.954;2023-11-21T07:58:29;7.60;1.00
6270;DHT22;3168;51.684;6.954;2023-11-21T08:00:55;7.50;1.00
6270;DHT22;3168;51.684;6.954;2023-11-21T08:03:21;7.60;1.00
6270;DHT22;3168;51.684;6.954;2023-11-21T08:05:47;7.80;1.00
6270;DHT22;3168;51.684;6.954;2023-11-21T08:08:13;7.80;1.00
6270;DHT22;3168;51.684;6.954;2023-11-21T08:10:39;7.80;1.00
6270;DHT22;3168;51.684;6.954;2023-11-21T08:13:06;7.70;1.00
6270;DHT22;3168;51.684;6.954;2023-11-21T08:15:32;7.60;1.00
6270;DHT22;3168;51.684;6.954;2023-11-21T08:17:58;7.60;1.00
6270;DHT22;3168;51.684;6.954;2023-11-21T08:20:25;7.70;1.00
6270;DHT22;3168;51.684;6.954;2023-11-21T08:22:51;7.80;1.00
6270;DHT22;3168;51.684;6.954;2023-11-21T08:25:18;7.80;1.00
6270;DHT22;3168;51.684;6.954;2023-11-21T08:27:45;7.70;1.00
6270;DHT22;3168;51.684;6.954;2023-11-21T08:30:11;7.70;1.00
6270;DHT22;3168;51.684;6.954;2023-11-21T08:32:37;7.60;1.00
6270;DHT22;3168;51.684;6.954;2023-11-21T08:35:04;7.70;1.00
6270;DHT22;3168;51.684;6.954;2023-11-21T08:37:30;7.80;1.00
6270;DHT22;3168;51.684;6.954;2023-11-21T08:39:58;7.80;1.00
6270;DHT22;3168;51.684;6.954;2023-11-21T08:42:24;7.90;1.00
6270;DHT22;3168;51.684;6.954;2023-11-21T08:44:50;7.90;1.00
6270;DHT22;3168;51.684;6.954;2023-11-21T08:47:16;7.80;1.00
6270;DHT22;3168;51.684;6.954;2023-11-21T08:49:43;7.90;1.00
6270;DHT22;3168;51.684;6.954;2023-11-21T08:52:09;7.90;1.00
6270;DHT22;3168;51.684;6.954;2023-11-21T08:54:35;8.00;1.00
6270;DHT22;3168;51.684;6.954;2023-11-21T08:57:01;8.00;1.00
6270;DHT22;3168;51.684;6.954;2023-11-21T08:59:27;8.00;1.00
6270;DHT22;3168;51.684;6.954;2023-11-21T09:01:53;7.90;1.00
6270;DHT22;3168;51.684;6.954;2023-11-21T09:04:20;7.90;1.00
6270;DHT22;3168;51.684;6.954;2023-11-21T09:06:46;7.90;1.00
6270;DHT22;3168;51.684;6.954;2023-11-21T09:09:12;7.90;1.00
6270;DHT22;3168;51.684;6.954;2023-11-21T09:11:39;8.00;1.00
6270;DHT22;3168;51.684;6.954;2023-11-21T09:14:05;7.90;1.00
6270;DHT22;3168;51.684;6.954;2023-11-21T09:16:31;8.10;1.00
6270;DHT22;3168;51.684;6.954;2023-11-21T09:18:58;8.00;1.00
6270;DHT22;3168;51.684;6.954;2023-11-21T09:21:23;8.00;1.00
6270;DHT22;3168;51.684;6.954;2023-11-21T09:23:49;8.10;1.00
6270;DHT22;3168;51.684;6.954;2023-11-21T09:26:15;8.20;1.00
6270;DHT22;3168;51.684;6.954;2023-11-21T09:28:42;8.30;1.00
6270;DHT22;3168;51.684;6.954;2023-11-21T09:31:07;8.40;1.00
6270;DHT22;3168;51.684;6.954;2023-11-21T09:33:33;8.30;1.00
6270;DHT22;3168;51.684;6.954;2023-11-21T09:36:00;8.30;1.00
6270;DHT22;3168;51.684;6.954;2023-11-21T09:38:26;8.30;1.00
6270;DHT22;3168;51.684;6.954;2023-11-21T09:40:52;8.40;1.00
6270;DHT22;3168;51.684;6.954;2023-11-21T09:43:18;8.50;1.00
6270;DHT22;3168;51.684;6.954;2023-11-21T09:45:46;8.50;1.00
6270;DHT22;3168;51.684;6.954;2023-11-21T09:48:13;8.50;1.00
6270;DHT22;3168;51.684;6.954;2023-11-21T09:50:39;8.50;1.00
6270;DHT22;3168;51.684;6.954;2023-11-21T09:53:26;8.70;1.00
6270;DHT22;3168;51.684;6.954;2023-11-21T09:55:53;8.70;1.00
6270;DHT22;3168;51.684;6.954;2023-11-21T09:58:18;8.80;1.00
6270;DHT22;3168;51.684;6.954;2023-11-21T10:00:45;8.70;1.00
6270;DHT22;3168;51.684;6.954;2023-11-21T10:03:11;8.60;1.00
6270;DHT22;3168;51.684;6.954;2023-11-21T10:05:37;8.90;1.00
6270;DHT22;3168;51.684;6.954;2023-11-21T10:08:04;9.00;1.00
6270;DHT22;3168;51.684;6.954;2023-11-21T10:10:30;8.60;1.00
6270;DHT22;3168;51.684;6.954;2023-11-21T10:12:56;8.70;1.00
6270;DHT22;3168;51.684;6.954;2023-11-21T10:15:22;8.60;1.00
6270;DHT22;3168;51.684;6.954;2023-11-21T10:17:49;8.80;1.00
6270;DHT22;3168;51.684;6.954;2023-11-21T10:20:15;8.90;1.00
6270;DHT22;3168;51.684;6.954;2023-11-21T10:22:41;8.70;1.00
6270;DHT22;3168;51.684;6.954;2023-11-21T10:25:08;8.70;1.00
6270;DHT22;3168;51.684;6.954;2023-11-21T10:27:34;8.70;1.00
6270;DHT22;3168;51.684;6.954;2023-11-21T10:30:02;8.70;1.00
6270;DHT22;3168;51.684;6.954;2023-11-21T10:32:28;8.60;1.00
6270;DHT22;3168;51.684;6.954;2023-11-21T10:34:56;8.80;1.00
6270;DHT22;3168;51.684;6.954;2023-11-21T10:37:22;9.00;1.00
6270;DHT22;3168;51.684;6.954;2023-11-21T10:39:48;9.00;1.00
6270;DHT22;3168;51.684;6.954;2023-11-21T10:42:13;8.90;1.00
6270;DHT22;3168;51.684;6.954;2023-11-21T10:44:41;9.30;1.00
6270;DHT22;3168;51.684;6.954;2023-11-21T10:47:08;9.30;1.00
6270;DHT22;3168;51.684;6.954;2023-11-21T10:49:32;9.20;1.00
6270;DHT22;3168;51.684;6.954;2023-11-21T10:51:59;9.20;1.00
6270;DHT22;3168;51.684;6.954;2023-11-21T10:54:25;8.90;1.00
6270;DHT22;3168;51.684;6.954;2023-11-21T10:56:53;8.90;1.00
6270;DHT22;3168;51.684;6.954;2023-11-21T10:59:17;9.10;1.00
6270;DHT22;3168;51.684;6.954;2023-11-21T11:01:44;8.90;1.00
6270;DHT22;3168;51.684;6.954;2023-11-21T11:04:10;9.10;1.00
6270;DHT22;3168;51.684;6.954;2023-11-21T11:06:37;9.20;1.00
6270;DHT22;3168;51.684;6.954;2023-11-21T11:09:03;9.10;1.00
6270;DHT22;3168;51.684;6.954;2023-11-21T11:11:40;9.30;1.00
6270;DHT22;3168;51.684;6.954;2023-11-21T11:14:08;9.00;1.00
6270;DHT22;3168;51.684;6.954;2023-11-21T11:16:32;8.90;1.00
6270;DHT22;3168;51.684;6.954;2023-11-21T11:18:58;8.90;1.00
6270;DHT22;3168;51.684;6.954;2023-11-21T11:21:38;8.80;1.00
6270;DHT22;3168;51.684;6.954;2023-11-21T11:24:36;8.80;1.00
6270;DHT22;3168;51.684;6.954;2023-11-21T11:29:36;8.80;1.00
6270;DHT22;3168;51.684;6.954;2023-11-21T11:32:21;9.00;1.00
6270;DHT22;3168;51.684;6.954;2023-11-21T11:34:52;9.00;1.00
6270;DHT22;3168;51.684;6.954;2023-11-21T11:37:15;9.20;1.00
6270;DHT22;3168;51.684;6.954;2023-11-21T11:39:41;9.20;1.00
6270;DHT22;3168;51.684;6.954;2023-11-21T11:42:11;9.20;1.00
6270;DHT22;3168;51.684;6.954;2023-11-21T11:44:47;9.20;1.00
6270;DHT22;3168;51.684;6.954;2023-11-21T11:47:28;9.10;1.00
6270;DHT22;3168;51.684;6.954;2023-11-21T11:49:56;9.00;1.00
6270;DHT22;3168;51.684;6.954;2023-11-21T11:52:31;9.20;1.00
6270;DHT22;3168;51.684;6.954;2023-11-21T11:54:58;9.10;1.00
6270;DHT22;3168;51.684;6.954;2023-11-21T11:57:24;9.00;1.00
6270;DHT22;3168;51.684;6.954;2023-11-21T12:00:12;9.00;1.00
6270;DHT22;3168;51.684;6.954;2023-11-21T12:02:38;9.00;1.00
6270;DHT22;3168;51.684;6.954;2023-11-21T12:05:13;9.00;1.00
6270;DHT22;3168;51.684;6.954;2023-11-21T12:07:42;9.20;1.00
6270;DHT22;3168;51.684;6.954;2023-11-21T12:10:10;9.30;1.00
6270;DHT22;3168;51.684;6.954;2023-11-21T12:12:34;9.30;1.00
6270;DHT22;3168;51.684;6.954;2023-11-21T12:15:00;9.40;1.00
6270;DHT22;3168;51.684;6.954;2023-11-21T12:17:26;9.40;1.00
6270;DHT22;3168;51.684;6.954;2023-11-21T12:19:53;9.40;1.00
6270;DHT22;3168;51.684;6.954;2023-11-21T12:22:19;9.30;1.00
6270;DHT22;3168;51.684;6.954;2023-11-21T12:24:45;9.30;1.00
6270;DHT22;3168;51.684;6.954;2023-11-21T12:27:11;9.30;1.00
6270;DHT22;3168;51.684;6.954;2023-11-21T12:29:37;9.20;1.00
6270;DHT22;3168;51.684;6.954;2023-11-21T12:32:03;9.20;1.00
6270;DHT22;3168;51.684;6.954;2023-11-21T12:34:29;9.30;1.00
6270;DHT22;3168;51.684;6.954;2023-11-21T12:36:56;9.30;1.00
6270;DHT22;3168;51.684;6.954;2023-11-21T12:39:22;9.30;1.00
6270;DHT22;3168;51.684;6.954;2023-11-21T12:41:48;9.20;1.00
6270;DHT22;3168;51.684;6.954;2023-11-21T12:44:14;9.40;1.00
6270;DHT22;3168;51.684;6.954;2023-11-21T12:46:41;9.20;1.00
6270;DHT22;3168;51.684;6.954;2023-11-21T12:49:06;9.30;1.00
6270;DHT22;3168;51.684;6.954;2023-11-21T12:51:32;9.30;1.00
6270;DHT22;3168;51.684;6.954;2023-11-21T12:53:58;9.30;1.00
6270;DHT22;3168;51.684;6.954;2023-11-21T12:56:24;9.40;1.00
6270;DHT22;3168;51.684;6.954;2023-11-21T12:58:53;9.40;1.00
6270;DHT22;3168;51.684;6.954;2023-11-21T13:01:17;9.20;1.00
6270;DHT22;3168;51.684;6.954;2023-11-21T13:03:47;9.20;1.00
6270;DHT22;3168;51.684;6.954;2023-11-21T13:06:12;9.30;1.00
6270;DHT22;3168;51.684;6.954;2023-11-21T13:08:38;9.30;1.00
6270;DHT22;3168;51.684;6.954;2023-11-21T13:11:05;9.20;1.00
6270;DHT22;3168;51.684;6.954;2023-11-21T13:13:31;9.20;1.00
6270;DHT22;3168;51.684;6.954;2023-11-21T13:16:00;9.30;1.00
6270;DHT22;3168;51.684;6.954;2023-11-21T13:18:27;9.20;1.00
6270;DHT22;3168;51.684;6.954;2023-11-21T13:20:54;9.20;1.00
6270;DHT22;3168;51.684;6.954;2023-11-21T13:23:20;9.20;1.00
6270;DHT22;3168;51.684;6.954;2023-11-21T13:25:46;9.20;1.00
6270;DHT22;3168;51.684;6.954;2023-11-21T13:28:12;9.20;1.00
6270;DHT22;3168;51.684;6.954;2023-11-21T13:30:38;9.30;1.00
6270;DHT22;3168;51.684;6.954;2023-11-21T13:33:04;9.20;1.00
6270;DHT22;3168;51.684;6.954;2023-11-21T13:35:31;9.20;1.00
6270;DHT22;3168;51.684;6.954;2023-11-21T13:38:03;9.20;1.00
6270;DHT22;3168;51.684;6.954;2023-11-21T13:40:24;9.30;1.00
6270;DHT22;3168;51.684;6.954;2023-11-21T13:42:50;9.30;1.00
6270;DHT22;3168;51.684;6.954;2023-11-21T13:45:16;9.40;1.00
6270;DHT22;3168;51.684;6.954;2023-11-21T13:47:42;9.50;1.00
6270;DHT22;3168;51.684;6.954;2023-11-21T13:50:08;9.30;1.00
6270;DHT22;3168;51.684;6.954;2023-11-21T13:52:34;9.30;1.00
6270;DHT22;3168;51.684;6.954;2023-11-21T13:55:00;9.20;1.00
6270;DHT22;3168;51.684;6.954;2023-11-21T13:57:26;9.30;1.00
6270;DHT22;3168;51.684;6.954;2023-11-21T13:59:52;9.20;1.00
6270;DHT22;3168;51.684;6.954;2023-11-21T14:02:18;9.10;1.00
6270;DHT22;3168;51.684;6.954;2023-11-21T14:04:44;9.20;1.00
6270;DHT22;3168;51.684;6.954;2023-11-21T14:07:18;9.10;1.00
6270;DHT22;3168;51.684;6.954;2023-11-21T14:09:50;9.20;1.00
6270;DHT22;3168;51.684;6.954;2023-11-21T14:12:16;9.10;1.00
6270;DHT22;3168;51.684;6.954;2023-11-21T14:14:42;9.10;1.00
6270;DHT22;3168;51.684;6.954;2023-11-21T14:17:08;9.20;1.00
6270;DHT22;3168;51.684;6.954;2023-11-21T14:19:34;9.10;1.00
6270;DHT22;3168;51.684;6.954;2023-11-21T14:22:00;9.10;1.00
6270;DHT22;3168;51.684;6.954;2023-11-21T14:24:27;9.00;1.00
6270;DHT22;3168;51.684;6.954;2023-11-21T14:26:52;9.00;1.00
6270;DHT22;3168;51.684;6.954;2023-11-21T14:29:19;9.00;1.00
6270;DHT22;3168;51.684;6.954;2023-11-21T14:31:44;9.00;1.00
6270;DHT22;3168;51.684;6.954;2023-11-21T14:34:10;8.90;1.00
6270;DHT22;3168;51.684;6.954;2023-11-21T14:36:36;8.90;1.00
6270;DHT22;3168;51.684;6.954;2023-11-21T14:39:03;9.00;1.00
6270;DHT22;3168;51.684;6.954;2023-11-21T14:41:29;8.90;1.00
6270;DHT22;3168;51.684;6.954;2023-11-21T14:43:55;8.90;1.00
6270;DHT22;3168;51.684;6.954;2023-11-21T14:46:21;8.90;1.00
6270;DHT22;3168;51.684;6.954;2023-11-21T14:48:47;9.00;1.00
6270;DHT22;3168;51.684;6.954;2023-11-21T14:51:14;9.00;1.00
6270;DHT22;3168;51.684;6.954;2023-11-21T14:53:57;9.00;1.00
6270;DHT22;3168;51.684;6.954;2023-11-21T14:56:22;9.00;1.00
6270;DHT22;3168;51.684;6.954;2023-11-21T14:58:54;9.00;1.00
6270;DHT22;3168;51.684;6.954;2023-11-21T15:01:20;9.00;1.00
6270;DHT22;3168;51.684;6.954;2023-11-21T15:03:45;8.90;1.00
6270;DHT22;3168;51.684;6.954;2023-11-21T15:06:12;9.00;1.00
6270;DHT22;3168;51.684;6.954;2023-11-21T15:08:49;9.00;1.00
6270;DHT22;3168;51.684;6.954;2023-11-21T15:11:14;8.90;1.00
6270;DHT22;3168;51.684;6.954;2023-11-21T15:13:40;9.00;1.00
6270;DHT22;3168;51.684;6.954;2023-11-21T15:16:08;8.90;1.00
6270;DHT22;3168;51.684;6.954;2023-11-21T15:18:33;8.90;1.00
6270;DHT22;3168;51.684;6.954;2023-11-21T15:21:00;8.80;1.00
6270;DHT22;3168;51.684;6.954;2023-11-21T15:23:26;8.80;1.00
6270;DHT22;3168;51.684;6.954;2023-11-21T15:25:52;8.70;1.00
6270;DHT22;3168;51.684;6.954;2023-11-21T15:28:19;8.60;1.00
6270;DHT22;3168;51.684;6.954;2023-11-21T15:30:45;8.60;1.00
6270;DHT22;3168;51.684;6.954;2023-11-21T15:33:12;8.50;1.00
6270;DHT22;3168;51.684;6.954;2023-11-21T15:35:38;8.40;1.00
6270;DHT22;3168;51.684;6.954;2023-11-21T15:38:04;8.30;1.00
6270;DHT22;3168;51.684;6.954;2023-11-21T15:40:31;8.00;1.00
6270;DHT22;3168;51.684;6.954;2023-11-21T15:42:56;8.00;1.00
6270;DHT22;3168;51.684;6.954;2023-11-21T15:45:23;7.90;1.00
6270;DHT22;3168;51.684;6.954;2023-11-21T15:47:49;7.90;1.00
6270;DHT22;3168;51.684;6.954;2023-11-21T15:50:15;7.80;1.00
6270;DHT22;3168;51.684;6.954;2023-11-21T15:52:41;7.90;1.00
6270;DHT22;3168;51.684;6.954;2023-11-21T15:55:08;8.00;1.00
6270;DHT22;3168;51.684;6.954;2023-11-21T15:57:34;8.00;1.00
6270;DHT22;3168;51.684;6.954;2023-11-21T16:00:00;7.90;1.00
6270;DHT22;3168;51.684;6.954;2023-11-21T16:02:26;7.90;1.00
6270;DHT22;3168;51.684;6.954;2023-11-21T16:04:52;7.90;1.00
6270;DHT22;3168;51.684;6.954;2023-11-21T16:07:21;7.90;1.00
6270;DHT22;3168;51.684;6.954;2023-11-21T16:09:47;7.90;1.00
6270;DHT22;3168;51.684;6.954;2023-11-21T16:12:13;7.90;1.00
6270;DHT22;3168;51.684;6.954;2023-11-21T16:14:40;7.90;1.00
6270;DHT22;3168;51.684;6.954;2023-11-21T16:17:08;7.90;1.00
6270;DHT22;3168;51.684;6.954;2023-11-21T16:19:35;7.80;1.00
6270;DHT22;3168;51.684;6.954;2023-11-21T16:22:02;7.80;1.00
6270;DHT22;3168;51.684;6.954;2023-11-21T16:24:28;7.70;1.00
6270;DHT22;3168;51.684;6.954;2023-11-21T16:26:55;7.90;1.00
6270;DHT22;3168;51.684;6.954;2023-11-21T16:29:21;7.90;1.00
6270;DHT22;3168;51.684;6.954;2023-11-21T16:31:48;7.80;1.00